createdAt,value
2024-01-06T00:02:21.899Z,4.28
2024-01-06T00:05:25.442Z,3.73
2024-01-06T00:08:28.865Z,3.95
2024-01-06T00:11:32.229Z,3.83
2024-01-06T00:14:35.851Z,4.03
2024-01-06T00:17:39.382Z,4.68
2024-01-06T00:20:42.841Z,4.60
2024-01-06T00:23:46.232Z,4.25
2024-01-06T00:26:49.575Z,4.57
2024-01-06T00:29:53.098Z,3.80
2024-01-06T00:32:56.497Z,4.70
2024-01-06T00:36:00.049Z,4.17
2024-01-06T00:39:05.004Z,4.40
2024-01-06T00:42:08.473Z,3.42
2024-01-06T00:45:11.964Z,3.85
2024-01-06T00:48:15.558Z,4.55
2024-01-06T00:51:19.120Z,4.93
2024-01-06T00:54:22.576Z,4.30
2024-01-06T00:57:25.990Z,4.43
2024-01-06T01:00:29.504Z,3.90
2024-01-06T01:03:33.035Z,3.92
2024-01-06T01:06:39.047Z,4.13
2024-01-06T01:09:42.664Z,4.18
2024-01-06T01:12:46.326Z,4.07
2024-01-06T01:15:50.163Z,3.95
2024-01-06T01:18:53.944Z,3.88
2024-01-06T01:21:57.677Z,4.17
2024-01-06T01:25:06.518Z,4.03
2024-01-06T01:28:10.606Z,4.35
2024-01-06T01:31:14.937Z,4.30
2024-01-06T01:34:18.999Z,3.88
2024-01-06T01:37:22.845Z,3.90
2024-01-06T01:40:26.495Z,4.03
2024-01-06T01:43:30.501Z,4.25
2024-01-06T01:46:34.177Z,3.42
2024-01-06T01:49:38.771Z,3.60
2024-01-06T01:52:43.795Z,3.60
2024-01-06T01:55:48.168Z,3.53
2024-01-06T01:58:51.872Z,3.70
2024-01-06T02:01:55.321Z,3.60
2024-01-06T02:04:58.829Z,3.35
2024-01-06T02:08:02.348Z,3.50
2024-01-06T02:11:06.464Z,4.05
2024-01-06T02:14:09.857Z,4.10
2024-01-06T02:17:13.429Z,3.38
2024-01-06T02:20:21.265Z,3.42
2024-01-06T02:23:24.804Z,3.20
2024-01-06T02:26:28.273Z,3.58
2024-01-06T02:29:31.946Z,3.30
2024-01-06T02:32:35.946Z,3.75
2024-01-06T02:35:41.290Z,3.45
2024-01-06T02:38:44.910Z,3.70
2024-01-06T02:41:48.684Z,3.45
2024-01-06T02:44:52.541Z,2.90
2024-01-06T02:47:56.233Z,3.58
2024-01-06T02:50:59.875Z,3.15
2024-01-06T02:54:03.509Z,2.83
2024-01-06T02:57:07.261Z,3.33
2024-01-06T03:00:11.392Z,3.38
2024-01-06T03:03:15.110Z,3.50
2024-01-06T03:06:18.681Z,3.45
2024-01-06T03:09:22.118Z,3.50
2024-01-06T03:12:25.508Z,2.67
2024-01-06T03:15:28.902Z,3.42
2024-01-06T03:18:32.552Z,3.50
2024-01-06T03:21:36.152Z,3.28
2024-01-06T03:24:41.155Z,2.37
2024-01-06T03:27:45.024Z,3.25
2024-01-06T03:30:48.983Z,3.92
2024-01-06T03:33:55.174Z,2.80
2024-01-06T03:36:58.851Z,3.10
2024-01-06T03:40:02.660Z,3.43
2024-01-06T03:43:06.229Z,3.67
2024-01-06T03:46:09.840Z,3.65
2024-01-06T03:49:13.594Z,3.47
2024-01-06T03:52:17.155Z,3.03
2024-01-06T03:55:20.592Z,3.87
2024-01-06T03:58:23.946Z,3.80
2024-01-06T04:01:27.364Z,3.40
2024-01-06T04:04:30.898Z,3.95
2024-01-06T04:07:34.334Z,3.60
2024-01-06T04:10:37.822Z,3.13
2024-01-06T04:13:41.168Z,3.40
2024-01-06T04:16:44.632Z,3.10
2024-01-06T04:19:48.193Z,3.08
2024-01-06T04:22:51.710Z,3.03
2024-01-06T04:25:55.154Z,3.10
2024-01-06T04:28:58.552Z,3.50
2024-01-06T04:32:02.144Z,3.30
2024-01-06T04:35:05.999Z,3.40
2024-01-06T04:38:10.376Z,3.88
2024-01-06T04:41:14.041Z,4.07
2024-01-06T04:44:19.309Z,3.38
2024-01-06T04:47:22.831Z,3.28
2024-01-06T04:50:26.456Z,3.70
2024-01-06T04:53:30.105Z,3.50
2024-01-06T04:56:36.495Z,4.50
2024-01-06T04:59:40.399Z,3.35
2024-01-06T05:02:44.062Z,3.33
2024-01-06T05:05:48.050Z,3.72
2024-01-06T05:08:51.991Z,3.10
2024-01-06T05:11:55.527Z,4.37
2024-01-06T05:14:59.228Z,3.67
2024-01-06T05:18:02.962Z,3.28
2024-01-06T05:21:06.746Z,3.30
2024-01-06T05:24:10.457Z,3.50
2024-01-06T05:27:14.371Z,3.77
2024-01-06T05:30:18.003Z,3.95
2024-01-06T05:33:21.597Z,3.60
2024-01-06T05:36:25.109Z,3.28
2024-01-06T05:39:28.585Z,3.13
2024-01-06T05:42:32.254Z,4.00
2024-01-06T05:45:35.832Z,3.55
2024-01-06T05:48:41.878Z,3.72
2024-01-06T05:51:48.464Z,3.17
2024-01-06T05:54:51.968Z,3.58
2024-01-06T05:57:55.576Z,3.90
2024-01-06T06:00:59.453Z,3.78
2024-01-06T06:04:03.215Z,3.33
2024-01-06T06:07:06.676Z,3.42
2024-01-06T06:10:13.783Z,3.47
2024-01-06T06:13:17.485Z,3.67
2024-01-06T06:16:20.911Z,3.60
2024-01-06T06:19:24.463Z,2.80
2024-01-06T06:22:31.562Z,3.20
2024-01-06T06:25:35.789Z,3.42
2024-01-06T06:28:39.190Z,3.70
2024-01-06T06:31:44.333Z,3.35
2024-01-06T06:34:48.000Z,3.50
2024-01-06T06:37:51.460Z,4.00
2024-01-06T06:40:55.208Z,3.90
2024-01-06T06:43:59.619Z,3.40
2024-01-06T06:47:03.078Z,4.22
2024-01-06T06:50:06.823Z,3.95
2024-01-06T06:53:11.269Z,3.85
2024-01-06T06:56:18.489Z,4.00
2024-01-06T06:59:22.033Z,4.03
2024-01-06T07:02:25.516Z,4.23
2024-01-06T07:05:30.197Z,4.30
2024-01-06T07:08:33.828Z,4.57
2024-01-06T07:11:37.261Z,4.35
2024-01-06T07:14:40.638Z,4.10
2024-01-06T07:17:44.197Z,3.80
2024-01-06T07:20:47.631Z,4.32
2024-01-06T07:23:51.049Z,4.20
2024-01-06T07:26:54.453Z,4.25
2024-01-06T07:29:58.023Z,5.13
2024-01-06T07:33:01.502Z,4.60
2024-01-06T07:36:05.250Z,3.90
2024-01-06T07:39:08.652Z,4.55
2024-01-06T07:42:12.032Z,4.50
2024-01-06T07:45:15.583Z,5.30
2024-01-06T07:48:19.463Z,4.60
2024-01-06T07:51:22.930Z,4.97
2024-01-06T07:54:26.421Z,5.57
2024-01-06T07:57:29.828Z,4.85
2024-01-06T08:00:33.339Z,5.63
2024-01-06T08:03:36.745Z,4.22
2024-01-06T08:06:40.287Z,4.75
2024-01-06T08:09:44.021Z,4.72
2024-01-06T08:12:47.554Z,4.53
2024-01-06T08:15:52.221Z,5.23
2024-01-06T08:18:55.864Z,5.93
2024-01-06T08:21:59.384Z,4.65
2024-01-06T08:25:04.119Z,5.03
2024-01-06T08:28:07.731Z,4.40
2024-01-06T08:31:11.265Z,3.77
2024-01-06T08:34:14.861Z,4.80
2024-01-06T08:37:18.305Z,4.38
2024-01-06T08:40:21.680Z,5.43
2024-01-06T08:43:25.156Z,3.78
2024-01-06T08:46:28.554Z,4.57
2024-01-06T08:49:32.065Z,3.77
2024-01-06T08:52:35.488Z,4.35
2024-01-06T08:55:38.926Z,4.07
2024-01-06T08:58:42.353Z,3.88
2024-01-06T09:01:48.746Z,4.50
2024-01-06T09:04:53.423Z,4.20
2024-01-06T09:07:58.021Z,3.60
2024-01-06T09:11:01.746Z,3.72
2024-01-06T09:14:05.164Z,3.80
2024-01-06T09:17:08.556Z,4.10
2024-01-06T09:20:12.285Z,4.47
2024-01-06T09:23:16.668Z,3.65
2024-01-06T09:26:20.246Z,3.85
2024-01-06T09:29:23.601Z,4.55
2024-01-06T09:32:26.938Z,4.10
2024-01-06T09:35:30.331Z,3.93
2024-01-06T09:38:34.592Z,4.25
2024-01-06T09:41:38.016Z,4.57
2024-01-06T09:44:41.596Z,3.92
2024-01-06T09:47:51.065Z,4.77
2024-01-06T09:50:57.278Z,4.37
2024-01-06T09:54:02.946Z,4.63
2024-01-06T09:57:07.511Z,4.30
2024-01-06T10:00:11.287Z,3.70
2024-01-06T10:03:17.675Z,4.20
2024-01-06T10:06:24.122Z,4.80
2024-01-06T10:09:29.470Z,5.13
2024-01-06T10:12:33.489Z,5.28
2024-01-06T10:15:37.948Z,5.70
2024-01-06T10:18:41.590Z,5.03
2024-01-06T10:21:46.136Z,5.00
2024-01-06T10:24:49.526Z,4.72
2024-01-06T10:27:55.538Z,4.75
2024-01-06T10:31:00.215Z,4.40
2024-01-06T10:34:04.339Z,4.47
2024-01-06T10:37:07.891Z,5.00
2024-01-06T10:40:13.928Z,4.60
2024-01-06T10:43:18.070Z,5.18
2024-01-06T10:46:23.013Z,6.75
2024-01-06T10:49:28.234Z,5.27
2024-01-06T10:52:32.490Z,5.13
2024-01-06T10:55:36.821Z,6.13
2024-01-06T10:58:49.800Z,6.25
2024-01-06T11:01:55.349Z,6.95
2024-01-06T11:04:58.978Z,6.07
2024-01-06T11:08:02.870Z,5.10
2024-01-06T11:11:06.559Z,4.20
2024-01-06T11:14:21.430Z,5.13
2024-01-06T11:17:50.718Z,5.00
2024-01-06T11:21:23.572Z,4.53
2024-01-06T11:24:32.218Z,5.10
2024-01-06T11:27:37.427Z,4.63
2024-01-06T11:30:41.609Z,4.57
2024-01-06T11:33:48.644Z,5.28
2024-01-06T11:36:52.232Z,5.50
2024-01-06T11:39:55.766Z,5.10
2024-01-06T11:43:10.358Z,6.40
2024-01-06T11:46:14.156Z,6.20
2024-01-06T11:49:20.341Z,5.28
2024-01-06T11:52:24.136Z,4.23
2024-01-06T11:55:29.303Z,5.33
2024-01-06T11:58:34.463Z,5.97
2024-01-06T12:01:41.003Z,6.40
2024-01-06T12:04:48.631Z,6.05
2024-01-06T12:08:09.937Z,5.50
2024-01-06T12:11:13.311Z,6.03
2024-01-06T12:14:16.979Z,6.60
2024-01-06T12:17:23.077Z,5.88
2024-01-06T12:20:27.463Z,5.47
2024-01-06T12:23:30.961Z,5.30
2024-01-06T12:26:35.063Z,6.07
2024-01-06T12:29:44.695Z,5.03
2024-01-06T12:32:53.898Z,5.50
2024-01-06T12:35:57.638Z,7.35
2024-01-06T12:39:02.223Z,7.73
2024-01-06T12:42:05.960Z,7.00
2024-01-06T12:45:10.929Z,5.65
2024-01-06T12:48:14.403Z,5.15
2024-01-06T12:51:17.897Z,4.85
2024-01-06T12:54:21.389Z,5.47
2024-01-06T12:57:25.684Z,4.67
2024-01-06T13:00:29.094Z,5.47
2024-01-06T13:03:32.903Z,6.15
2024-01-06T13:06:36.859Z,5.07
2024-01-06T13:09:41.295Z,5.90
2024-01-06T13:12:44.764Z,4.73
2024-01-06T13:15:48.237Z,4.53
2024-01-06T13:18:54.347Z,4.05
2024-01-06T13:21:58.886Z,4.90
2024-01-06T13:25:02.490Z,4.53
2024-01-06T13:28:09.053Z,4.80
2024-01-06T13:31:12.511Z,4.70
2024-01-06T13:34:15.994Z,5.32
2024-01-06T13:37:19.437Z,4.97
2024-01-06T13:40:23.480Z,5.30
2024-01-06T13:43:26.907Z,5.40
2024-01-06T13:46:30.277Z,4.47
2024-01-06T13:49:33.828Z,5.22
2024-01-06T13:52:37.458Z,4.63
2024-01-06T13:55:41.013Z,5.33
2024-01-06T13:58:44.406Z,4.37
2024-01-06T14:01:47.995Z,4.53
2024-01-06T14:04:52.521Z,4.97
2024-01-06T14:07:56.783Z,4.95
2024-01-06T14:11:00.148Z,5.47
2024-01-06T14:14:03.589Z,5.70
2024-01-06T14:17:07.243Z,5.53
2024-01-06T14:20:10.930Z,5.97
2024-01-06T14:23:14.427Z,5.95
2024-01-06T14:26:21.326Z,5.63
2024-01-06T14:29:25.126Z,6.87
2024-01-06T14:32:28.652Z,8.25
2024-01-06T14:35:32.105Z,7.72
2024-01-06T14:38:35.490Z,9.02
2024-01-06T14:41:38.861Z,12.80
2024-01-06T14:44:42.254Z,10.53
2024-01-06T14:47:47.050Z,9.52
2024-01-06T14:50:52.398Z,6.95
2024-01-06T14:53:57.106Z,8.77
2024-01-06T14:57:00.501Z,9.97
2024-01-06T15:00:04.390Z,8.07
2024-01-06T15:03:07.865Z,7.00
2024-01-06T15:06:11.805Z,10.90
2024-01-06T15:09:15.409Z,13.55
2024-01-06T15:12:18.926Z,12.63
2024-01-06T15:15:22.531Z,12.50
2024-01-06T15:18:26.173Z,10.85
2024-01-06T15:21:34.642Z,9.98
2024-01-06T15:24:38.379Z,29.42
2024-01-06T15:27:41.818Z,11.87
2024-01-06T15:30:45.345Z,8.60
2024-01-06T15:33:49.336Z,8.40
2024-01-06T15:36:53.384Z,21.63
2024-01-06T15:39:56.943Z,15.93
2024-01-06T15:43:00.418Z,21.07
2024-01-06T15:46:04.039Z,16.07
2024-01-06T15:49:07.675Z,15.65
2024-01-06T15:52:11.288Z,13.55
2024-01-06T15:55:14.840Z,11.88
2024-01-06T15:58:19.573Z,9.60
2024-01-06T16:01:23.496Z,10.00
2024-01-06T16:04:27.540Z,10.50
2024-01-06T16:07:31.024Z,13.70
2024-01-06T16:10:36.753Z,13.90
2024-01-06T16:13:40.166Z,13.73
2024-01-06T16:16:43.980Z,12.53
2024-01-06T16:19:48.325Z,12.15
2024-01-06T16:22:52.129Z,13.50
2024-01-06T16:25:55.685Z,12.80
2024-01-06T16:28:59.130Z,12.83
2024-01-06T16:32:02.595Z,13.07
2024-01-06T16:35:06.189Z,12.55
2024-01-06T16:38:09.619Z,13.25
2024-01-06T16:41:13.037Z,13.15
2024-01-06T16:44:16.408Z,13.90
2024-01-06T16:47:19.886Z,13.37
2024-01-06T16:50:23.260Z,13.75
2024-01-06T16:53:26.703Z,14.02
2024-01-06T16:56:31.418Z,13.23
2024-01-06T16:59:37.525Z,13.77
2024-01-06T17:02:41.050Z,12.20
2024-01-06T17:05:44.525Z,13.38
2024-01-06T17:08:48.021Z,12.80
2024-01-06T17:11:51.477Z,11.40
2024-01-06T17:14:54.997Z,13.30
2024-01-06T17:17:58.950Z,13.97
2024-01-06T17:21:03.539Z,15.43
2024-01-06T17:24:07.101Z,15.07
2024-01-06T17:27:10.480Z,14.90
2024-01-06T17:30:16.052Z,12.63
2024-01-06T17:33:19.861Z,10.77
2024-01-06T17:36:23.431Z,11.18
2024-01-06T17:39:26.882Z,13.55
2024-01-06T17:42:30.313Z,11.82
2024-01-06T17:45:33.787Z,11.03
2024-01-06T17:48:38.278Z,11.90
2024-01-06T17:51:41.844Z,12.38
2024-01-06T17:54:45.474Z,14.18
2024-01-06T17:57:49.065Z,13.55
2024-01-06T18:00:52.908Z,14.50
2024-01-06T18:03:57.058Z,12.50
2024-01-06T18:07:00.909Z,11.95
2024-01-06T18:10:07.689Z,12.13
2024-01-06T18:13:13.291Z,11.75
2024-01-06T18:16:17.050Z,13.53
2024-01-06T18:19:20.497Z,14.40
2024-01-06T18:22:24.172Z,11.43
2024-01-06T18:25:27.617Z,11.90
2024-01-06T18:28:31.073Z,11.10
2024-01-06T18:31:34.522Z,11.70
2024-01-06T18:34:38.866Z,11.03
2024-01-06T18:37:42.572Z,14.70
2024-01-06T18:40:45.979Z,15.50
2024-01-06T18:43:49.581Z,15.88
2024-01-06T18:46:52.954Z,13.13
2024-01-06T18:49:57.264Z,13.17
2024-01-06T18:53:00.902Z,11.73
2024-01-06T18:56:04.452Z,11.70
2024-01-06T18:59:09.392Z,11.80
2024-01-06T19:02:13.230Z,11.27
2024-01-06T19:05:16.688Z,11.67
2024-01-06T19:08:20.321Z,11.98
2024-01-06T19:11:24.215Z,11.98
2024-01-06T19:14:28.033Z,12.75
2024-01-06T19:17:31.525Z,15.37
2024-01-06T19:20:35.418Z,13.60
2024-01-06T19:23:40.092Z,12.38
2024-01-06T19:26:43.503Z,10.60
2024-01-06T19:29:47.763Z,10.05
2024-01-06T19:32:51.233Z,9.80
2024-01-06T19:35:55.037Z,11.90
2024-01-06T19:38:58.436Z,12.73
2024-01-06T19:42:02.018Z,13.52
2024-01-06T19:45:06.070Z,12.40
2024-01-06T19:48:12.609Z,11.90
2024-01-06T19:51:16.749Z,12.67
2024-01-06T19:54:20.221Z,13.95
2024-01-06T19:57:23.931Z,13.38
2024-01-06T20:00:29.409Z,14.15
2024-01-06T20:03:33.271Z,12.30
2024-01-06T20:06:36.905Z,12.00
2024-01-06T20:09:46.606Z,11.25
2024-01-06T20:12:50.463Z,11.75
2024-01-06T20:15:53.986Z,12.75
2024-01-06T20:18:57.887Z,10.43
2024-01-06T20:22:01.431Z,12.27
2024-01-06T20:25:05.768Z,13.57
2024-01-06T20:28:09.957Z,14.27
2024-01-06T20:31:13.668Z,14.25
2024-01-06T20:34:17.565Z,15.03
2024-01-06T20:37:21.568Z,14.87
2024-01-06T20:40:25.114Z,16.42
2024-01-06T20:43:28.565Z,13.57
2024-01-06T20:46:31.979Z,13.75
2024-01-06T20:49:35.578Z,14.07
2024-01-06T20:52:39.770Z,14.17
2024-01-06T20:55:44.490Z,14.90
2024-01-06T20:58:48.905Z,13.25
2024-01-06T21:01:52.397Z,13.63
2024-01-06T21:04:55.971Z,12.63
2024-01-06T21:07:59.403Z,13.40
2024-01-06T21:11:03.522Z,17.85
2024-01-06T21:14:06.953Z,19.23
2024-01-06T21:17:10.699Z,18.58
2024-01-06T21:20:14.616Z,14.50
2024-01-06T21:23:28.205Z,13.97
2024-01-06T21:26:39.752Z,11.98
2024-01-06T21:29:43.161Z,12.95
2024-01-06T21:32:50.370Z,14.00
2024-01-06T21:35:53.823Z,13.03
2024-01-06T21:38:57.800Z,12.60
2024-01-06T21:42:01.842Z,12.20
2024-01-06T21:45:06.246Z,12.80
2024-01-06T21:48:09.822Z,13.65
2024-01-06T21:51:13.284Z,12.47
2024-01-06T21:54:17.011Z,13.43
2024-01-06T21:57:20.551Z,13.00
2024-01-06T22:00:24.570Z,13.02
2024-01-06T22:03:28.096Z,13.45
2024-01-06T22:06:31.755Z,12.13
2024-01-06T22:09:35.212Z,12.00
2024-01-06T22:12:38.686Z,11.98
2024-01-06T22:15:42.118Z,13.45
2024-01-06T22:18:45.926Z,11.95
2024-01-06T22:21:50.571Z,10.87
2024-01-06T22:24:54.221Z,10.80
2024-01-06T22:27:57.953Z,11.35
2024-01-06T22:31:02.433Z,11.65
2024-01-06T22:34:06.545Z,11.88
2024-01-06T22:37:10.053Z,14.20
2024-01-06T22:40:13.702Z,12.70
2024-01-06T22:43:17.484Z,12.88
2024-01-06T22:46:21.899Z,12.93
2024-01-06T22:49:26.276Z,13.48
2024-01-06T22:52:29.815Z,13.53
2024-01-06T22:55:33.168Z,11.60
2024-01-06T22:58:37.680Z,11.30
2024-01-06T23:01:41.660Z,10.25
2024-01-06T23:04:45.363Z,10.85
2024-01-06T23:07:48.876Z,11.57
2024-01-06T23:10:52.302Z,12.07
2024-01-06T23:13:55.717Z,12.77
2024-01-06T23:16:59.071Z,12.05
2024-01-06T23:20:02.749Z,11.75
2024-01-06T23:23:09.175Z,13.20
2024-01-06T23:26:12.590Z,12.57
2024-01-06T23:29:16.939Z,13.25
2024-01-06T23:32:20.402Z,13.13
2024-01-06T23:35:23.974Z,12.38
2024-01-06T23:38:27.457Z,11.70
2024-01-06T23:41:30.852Z,11.87
2024-01-06T23:44:34.260Z,12.40
2024-01-06T23:47:37.733Z,12.52
2024-01-06T23:50:43.110Z,12.38
2024-01-06T23:53:46.677Z,14.90
2024-01-06T23:56:50.063Z,16.10
2024-01-06T23:59:53.480Z,15.60
